createdAt,value
2022-11-15T00:01:42.404Z,92.17
2022-11-15T00:04:23.864Z,92.39
2022-11-15T00:07:05.460Z,92.06
2022-11-15T00:09:49.353Z,92.01
2022-11-15T00:12:30.330Z,92.44
2022-11-15T00:15:11.379Z,92.69
2022-11-15T00:17:52.618Z,92.66
2022-11-15T00:20:36.229Z,92.77
2022-11-15T00:23:17.587Z,92.89
2022-11-15T00:25:59.425Z,92.89
2022-11-15T00:28:41.451Z,92.81
2022-11-15T00:31:22.376Z,92.64
2022-11-15T00:34:03.257Z,92.13
2022-11-15T00:36:44.199Z,92.16
2022-11-15T00:39:25.271Z,91.89
2022-11-15T00:42:06.239Z,91.83
2022-11-15T00:44:47.259Z,91.32
2022-11-15T00:47:28.531Z,91.14
2022-11-15T00:50:14.840Z,90.85
2022-11-15T00:52:56.761Z,90.72
2022-11-15T00:55:38.119Z,90.69
2022-11-15T00:58:19.133Z,91.15
2022-11-15T01:01:08.379Z,91.57
2022-11-15T01:03:49.609Z,91.59
2022-11-15T01:06:31.099Z,91.51
2022-11-15T01:09:12.452Z,91.43
2022-11-15T01:11:53.568Z,91.50
2022-11-15T01:14:34.598Z,91.23
2022-11-15T01:17:15.419Z,91.41
2022-11-15T01:19:58.722Z,91.56
2022-11-15T01:22:39.653Z,91.09
2022-11-15T01:25:20.566Z,90.65
2022-11-15T01:28:01.852Z,90.31
2022-11-15T01:30:43.254Z,90.19
2022-11-15T01:33:24.695Z,89.98
2022-11-15T01:36:12.693Z,89.64
2022-11-15T01:38:56.274Z,90.10
2022-11-15T01:41:37.179Z,90.54
2022-11-15T01:44:44.273Z,90.19
2022-11-15T01:47:53.588Z,90.94
2022-11-15T01:50:34.762Z,91.19
2022-11-15T01:53:16.372Z,91.50
2022-11-15T01:55:57.834Z,91.67
2022-11-15T01:58:40.779Z,91.47
2022-11-15T02:01:22.939Z,91.86
2022-11-15T02:04:10.140Z,92.37
2022-11-15T02:06:51.451Z,92.63
2022-11-15T02:09:37.607Z,92.65
2022-11-15T02:12:22.281Z,92.77
2022-11-15T02:15:05.072Z,92.64
2022-11-15T02:17:51.525Z,92.40
2022-11-15T02:20:38.337Z,92.10
2022-11-15T02:23:57.063Z,91.91
2022-11-15T02:26:56.018Z,91.71
2022-11-15T02:30:05.037Z,91.94
2022-11-15T02:33:01.921Z,91.78
2022-11-15T02:36:02.650Z,91.51
2022-11-15T02:38:59.579Z,91.30
2022-11-15T02:42:00.243Z,91.34
2022-11-15T02:44:46.159Z,91.38
2022-11-15T02:47:31.208Z,91.39
2022-11-15T02:50:17.062Z,91.56
2022-11-15T02:52:58.874Z,91.50
2022-11-15T02:55:45.959Z,92.04
2022-11-15T02:58:35.907Z,92.29
2022-11-15T03:01:31.485Z,92.47
2022-11-15T03:04:30.957Z,92.48
2022-11-15T03:07:17.109Z,92.53
2022-11-15T03:10:21.201Z,92.44
2022-11-15T03:13:26.725Z,92.55
2022-11-15T03:16:12.055Z,92.43
2022-11-15T03:18:58.649Z,92.31
2022-11-15T03:21:41.688Z,92.25
2022-11-15T03:24:26.389Z,92.45
2022-11-15T03:27:10.751Z,92.67
2022-11-15T03:30:12.259Z,92.80
2022-11-15T03:32:57.550Z,93.23
2022-11-15T03:35:41.961Z,93.46
2022-11-15T03:38:26.396Z,93.10
2022-11-15T03:41:16.874Z,92.61
2022-11-15T03:44:26.994Z,92.24
2022-11-15T03:47:13.515Z,92.15
2022-11-15T03:50:02.212Z,91.92
2022-11-15T03:52:46.389Z,91.46
2022-11-15T03:55:27.874Z,91.76
2022-11-15T03:58:09.210Z,91.93
2022-11-15T04:00:50.683Z,92.24
2022-11-15T04:03:32.301Z,92.17
2022-11-15T04:06:13.685Z,92.33
2022-11-15T04:08:54.753Z,91.92
2022-11-15T04:11:35.872Z,91.42
2022-11-15T04:14:16.994Z,91.55
2022-11-15T04:16:58.445Z,91.52
2022-11-15T04:19:57.909Z,91.84
2022-11-15T04:22:58.045Z,92.01
2022-11-15T04:25:39.739Z,92.15
2022-11-15T04:28:20.975Z,92.24
2022-11-15T04:31:01.884Z,92.73
2022-11-15T04:33:42.696Z,92.86
2022-11-15T04:36:42.564Z,92.93
2022-11-15T04:39:23.726Z,92.51
2022-11-15T04:42:04.741Z,92.02
2022-11-15T04:44:46.259Z,91.69
2022-11-15T04:47:28.782Z,91.04
2022-11-15T04:50:15.392Z,90.37
2022-11-15T04:52:56.118Z,90.00
2022-11-15T04:55:37.280Z,89.88
2022-11-15T04:58:18.417Z,90.14
2022-11-15T05:01:07.113Z,90.46
2022-11-15T05:04:21.439Z,90.67
2022-11-15T05:07:05.173Z,90.65
2022-11-15T05:09:46.514Z,90.86
2022-11-15T05:12:27.494Z,91.06
2022-11-15T05:15:10.119Z,91.16
2022-11-15T05:17:51.436Z,91.13
2022-11-15T05:20:33.280Z,91.03
2022-11-15T05:23:14.498Z,91.08
2022-11-15T05:26:02.903Z,91.14
2022-11-15T05:28:48.002Z,90.93
2022-11-15T05:31:29.465Z,91.10
2022-11-15T05:34:11.427Z,90.88
2022-11-15T05:36:52.778Z,90.79
2022-11-15T05:39:34.205Z,91.08
2022-11-15T05:42:16.933Z,91.06
2022-11-15T05:44:59.670Z,90.58
2022-11-15T05:47:41.942Z,90.49
2022-11-15T05:50:24.063Z,90.38
2022-11-15T05:53:07.152Z,91.04
2022-11-15T05:55:48.879Z,90.89
2022-11-15T05:58:32.805Z,90.65
2022-11-15T06:01:14.161Z,90.16
2022-11-15T06:03:55.475Z,90.52
2022-11-15T06:06:36.647Z,90.50
2022-11-15T06:09:17.718Z,90.80
2022-11-15T06:11:59.251Z,90.72
2022-11-15T06:14:40.696Z,91.05
2022-11-15T06:17:22.861Z,90.92
2022-11-15T06:20:04.660Z,90.71
2022-11-15T06:22:45.884Z,91.04
2022-11-15T06:25:31.142Z,91.06
2022-11-15T06:28:12.274Z,90.46
2022-11-15T06:30:53.625Z,90.58
2022-11-15T06:33:35.417Z,90.68
2022-11-15T06:36:18.236Z,90.87
2022-11-15T06:38:59.472Z,91.02
2022-11-15T06:41:41.413Z,91.02
2022-11-15T06:44:22.812Z,91.09
2022-11-15T06:47:03.736Z,90.89
2022-11-15T06:49:45.017Z,90.73
2022-11-15T06:52:26.422Z,91.06
2022-11-15T06:55:09.269Z,90.71
2022-11-15T06:57:52.821Z,90.74
2022-11-15T07:00:34.802Z,91.13
2022-11-15T07:03:16.511Z,91.29
2022-11-15T07:06:04.242Z,91.33
2022-11-15T07:08:48.088Z,91.31
2022-11-15T07:11:29.113Z,91.31
2022-11-15T07:14:10.075Z,90.99
2022-11-15T07:16:50.919Z,90.98
2022-11-15T07:19:36.354Z,90.82
2022-11-15T07:22:17.269Z,90.59
2022-11-15T07:24:58.433Z,90.48
2022-11-15T07:27:39.894Z,90.29
2022-11-15T07:30:22.116Z,90.17
2022-11-15T07:33:03.612Z,89.67
2022-11-15T07:35:47.417Z,89.44
2022-11-15T07:38:30.020Z,89.66
2022-11-15T07:41:11.216Z,89.07
2022-11-15T07:43:53.906Z,88.69
2022-11-15T07:46:35.457Z,88.34
2022-11-15T07:49:16.954Z,88.54
2022-11-15T07:51:58.808Z,88.04
2022-11-15T07:54:40.641Z,87.96
2022-11-15T07:57:21.790Z,87.80
2022-11-15T08:00:07.730Z,88.15
2022-11-15T08:02:49.159Z,87.89
2022-11-15T08:05:30.744Z,88.28
2022-11-15T08:08:12.491Z,88.60
2022-11-15T08:10:54.134Z,89.00
2022-11-15T08:13:35.476Z,89.46
2022-11-15T08:16:16.576Z,89.22
2022-11-15T08:18:58.108Z,88.63
2022-11-15T08:21:39.742Z,89.03
2022-11-15T08:24:21.819Z,89.12
2022-11-15T08:27:02.850Z,88.79
2022-11-15T08:29:51.212Z,88.91
2022-11-15T08:32:33.599Z,88.63
2022-11-15T08:35:15.044Z,88.68
2022-11-15T08:37:56.455Z,88.34
2022-11-15T08:40:39.681Z,88.23
2022-11-15T08:43:21.251Z,87.60
2022-11-15T08:46:02.868Z,88.05
2022-11-15T08:48:44.503Z,87.89
2022-11-15T08:51:25.816Z,87.26
2022-11-15T08:54:07.914Z,87.52
2022-11-15T08:56:49.659Z,87.46
2022-11-15T08:59:31.722Z,87.62
2022-11-15T09:02:15.855Z,87.03
2022-11-15T09:04:58.093Z,86.06
2022-11-15T09:07:39.254Z,86.47
2022-11-15T09:10:21.860Z,87.11
2022-11-15T09:13:03.166Z,86.57
2022-11-15T09:15:44.639Z,86.72
2022-11-15T09:18:26.391Z,86.62
2022-11-15T09:21:08.208Z,85.79
2022-11-15T09:23:53.343Z,85.49
2022-11-15T09:26:34.721Z,84.36
2022-11-15T09:29:16.192Z,83.99
2022-11-15T09:31:57.603Z,84.51
2022-11-15T09:34:39.131Z,84.50
2022-11-15T09:37:20.494Z,85.06
2022-11-15T09:40:04.338Z,85.56
2022-11-15T09:43:04.385Z,85.24
2022-11-15T09:45:54.486Z,85.57
2022-11-15T09:48:50.513Z,85.37
2022-11-15T09:51:35.278Z,85.39
2022-11-15T09:56:49.005Z,84.43
2022-11-15T09:59:17.278Z,85.43
2022-11-15T10:01:58.172Z,84.94
2022-11-15T10:04:22.008Z,85.31
2022-11-15T10:06:55.119Z,85.50
2022-11-15T10:09:24.527Z,85.91
2022-11-15T10:11:47.041Z,85.92
2022-11-15T10:14:15.270Z,86.01
2022-11-15T10:17:15.711Z,86.21
2022-11-15T10:20:06.253Z,85.76
2022-11-15T10:22:35.903Z,85.72
2022-11-15T10:25:18.347Z,85.29
2022-11-15T10:27:43.261Z,85.87
2022-11-15T10:30:12.950Z,85.65
2022-11-15T10:32:37.356Z,86.64
2022-11-15T10:35:00.021Z,86.65
2022-11-15T10:37:31.609Z,86.76
2022-11-15T10:40:19.674Z,86.50
2022-11-15T10:42:42.477Z,86.16
2022-11-15T10:45:24.713Z,85.73
2022-11-15T10:47:47.479Z,86.24
2022-11-15T10:50:33.344Z,86.29
2022-11-15T10:52:56.255Z,86.33
2022-11-15T10:55:19.485Z,86.23
2022-11-15T10:57:51.580Z,86.47
2022-11-15T11:00:21.558Z,87.17
2022-11-15T11:02:57.470Z,87.10
2022-11-15T11:05:28.191Z,87.12
2022-11-15T11:08:02.348Z,86.87
2022-11-15T11:13:38.680Z,87.69
2022-11-15T11:16:21.545Z,88.09
2022-11-15T11:19:10.578Z,88.42
2022-11-15T11:22:10.393Z,88.66
2022-11-15T11:24:57.947Z,89.27
2022-11-15T11:27:29.551Z,89.43
2022-11-15T11:30:11.276Z,89.56
2022-11-15T11:32:59.530Z,89.57
2022-11-15T11:35:33.485Z,89.98
2022-11-15T11:38:03.470Z,90.12
2022-11-15T11:40:26.246Z,89.62
2022-11-15T11:42:59.146Z,89.25
2022-11-15T11:45:41.274Z,89.81
2022-11-15T11:48:16.037Z,89.84
2022-11-15T11:50:40.125Z,90.36
2022-11-15T11:53:13.747Z,91.06
2022-11-15T11:55:42.313Z,90.40
2022-11-15T11:58:27.208Z,90.62
2022-11-15T12:00:59.448Z,90.59
2022-11-15T12:03:43.874Z,90.26
2022-11-15T12:06:30.758Z,90.56
2022-11-15T12:09:03.058Z,90.58
2022-11-15T12:11:59.387Z,89.63
2022-11-15T12:15:00.994Z,90.32
2022-11-15T12:17:33.022Z,91.08
2022-11-15T12:20:02.874Z,91.08
2022-11-15T12:22:46.390Z,90.60
2022-11-15T12:25:17.711Z,90.70
2022-11-15T12:27:47.024Z,90.83
2022-11-15T12:30:16.677Z,90.61
2022-11-15T12:32:42.167Z,90.90
2022-11-15T12:35:07.221Z,90.36
2022-11-15T12:37:38.894Z,90.47
2022-11-15T12:40:27.281Z,90.17
2022-11-15T12:43:08.089Z,89.34
2022-11-15T12:45:34.008Z,89.42
2022-11-15T12:48:19.324Z,89.08
2022-11-15T12:50:56.967Z,88.96
2022-11-15T12:53:25.550Z,89.49
2022-11-15T12:56:14.053Z,88.90
2022-11-15T12:59:00.171Z,88.16
2022-11-15T13:01:31.921Z,88.16
2022-11-15T13:04:31.277Z,88.30
2022-11-15T13:07:07.740Z,87.98
2022-11-15T13:09:33.369Z,88.30
2022-11-15T13:11:58.350Z,88.51
2022-11-15T13:14:44.819Z,88.69
2022-11-15T13:17:21.186Z,88.67
2022-11-15T13:19:46.426Z,89.62
2022-11-15T13:22:31.141Z,89.80
2022-11-15T13:24:55.663Z,90.01
2022-11-15T13:27:20.545Z,89.92
2022-11-15T13:29:44.895Z,89.66
2022-11-15T13:32:14.450Z,89.74
2022-11-15T13:34:54.064Z,89.84
2022-11-15T13:37:37.289Z,89.64
2022-11-15T13:40:18.752Z,89.09
2022-11-15T13:42:45.641Z,89.83
2022-11-15T13:45:15.671Z,90.34
2022-11-15T13:47:38.525Z,90.16
2022-11-15T13:50:09.651Z,90.52
2022-11-15T13:52:37.832Z,90.13
2022-11-15T13:55:11.312Z,90.45
2022-11-15T13:57:49.493Z,90.61
2022-11-15T14:00:36.581Z,91.17
2022-11-15T14:03:16.723Z,90.98
2022-11-15T14:05:39.447Z,91.03
2022-11-15T14:08:13.644Z,90.91
2022-11-15T14:10:38.457Z,91.04
2022-11-15T14:13:02.122Z,91.09
2022-11-15T14:15:39.029Z,90.60
2022-11-15T14:18:02.698Z,90.75
2022-11-15T14:20:26.002Z,90.58
2022-11-15T14:23:00.642Z,90.43
2022-11-15T14:25:35.171Z,90.59
2022-11-15T14:28:09.909Z,90.67
2022-11-15T14:30:33.019Z,90.63
2022-11-15T14:32:55.598Z,90.80
2022-11-15T14:35:21.138Z,90.50
2022-11-15T14:37:44.675Z,90.67
2022-11-15T14:40:10.670Z,90.52
2022-11-15T14:42:33.467Z,90.62
2022-11-15T14:44:56.365Z,90.55
2022-11-15T14:47:19.844Z,90.64
2022-11-15T14:49:43.063Z,91.09
2022-11-15T14:52:33.032Z,91.25
2022-11-15T14:54:57.122Z,91.44
2022-11-15T14:57:19.750Z,91.54
2022-11-15T14:59:42.653Z,91.04
2022-11-15T15:02:17.002Z,91.02
2022-11-15T15:04:39.685Z,91.36
2022-11-15T15:07:02.306Z,91.28
2022-11-15T15:09:25.145Z,91.14
2022-11-15T15:11:47.827Z,91.07
2022-11-15T15:14:10.457Z,91.24
2022-11-15T15:16:33.112Z,91.25
2022-11-15T15:18:55.749Z,91.12
2022-11-15T15:21:22.893Z,90.73
2022-11-15T15:23:45.679Z,90.72
2022-11-15T15:26:08.543Z,90.49
2022-11-15T15:28:34.472Z,90.23
2022-11-15T15:30:57.653Z,90.37
2022-11-15T15:33:20.188Z,90.49
2022-11-15T15:35:43.109Z,90.28
2022-11-15T15:38:05.708Z,90.10
2022-11-15T15:40:30.809Z,90.18
2022-11-15T15:42:53.497Z,90.56
2022-11-15T15:45:41.141Z,90.51
2022-11-15T15:48:06.251Z,90.56
2022-11-15T15:50:34.673Z,90.42
2022-11-15T15:52:59.495Z,90.33
2022-11-15T15:55:22.503Z,90.29
2022-11-15T15:57:45.186Z,90.10
2022-11-15T16:00:10.425Z,90.55
2022-11-15T16:02:40.274Z,90.61
2022-11-15T16:05:03.422Z,90.38
2022-11-15T16:07:26.179Z,90.15
2022-11-15T16:10:03.061Z,90.28
2022-11-15T16:12:30.455Z,90.19
2022-11-15T16:14:52.918Z,90.34
2022-11-15T16:17:20.822Z,90.20
2022-11-15T16:19:45.244Z,90.15
2022-11-15T16:22:07.836Z,90.09
2022-11-15T16:24:30.767Z,90.01
2022-11-15T16:26:53.552Z,90.04
2022-11-15T16:29:16.247Z,90.47
2022-11-15T16:31:39.584Z,90.59
2022-11-15T16:34:02.124Z,90.85
2022-11-15T16:36:30.457Z,90.86
2022-11-15T16:38:53.708Z,90.78
2022-11-15T16:41:19.156Z,91.08
2022-11-15T16:43:41.604Z,91.64
2022-11-15T16:46:22.058Z,91.59
2022-11-15T16:48:45.085Z,91.31
2022-11-15T16:51:07.813Z,91.34
2022-11-15T16:53:30.399Z,90.99
2022-11-15T16:55:53.345Z,90.73
2022-11-15T16:58:15.970Z,91.10
2022-11-15T17:00:38.696Z,91.14
2022-11-15T17:03:01.923Z,91.17
2022-11-15T17:05:27.644Z,91.27
2022-11-15T17:07:54.428Z,91.29
2022-11-15T17:10:17.704Z,91.10
2022-11-15T17:12:41.186Z,91.08
2022-11-15T17:15:05.926Z,91.27
2022-11-15T17:17:28.595Z,91.37
2022-11-15T17:19:52.323Z,91.13
2022-11-15T17:22:15.331Z,91.08
2022-11-15T17:24:37.840Z,90.70
2022-11-15T17:27:00.592Z,90.32
2022-11-15T17:29:23.536Z,90.79
2022-11-15T17:31:46.817Z,90.47
2022-11-15T17:34:09.634Z,90.21
2022-11-15T17:36:32.773Z,90.10
2022-11-15T17:38:59.279Z,90.17
2022-11-15T17:41:22.746Z,90.58
2022-11-15T17:43:45.510Z,90.62
2022-11-15T17:46:12.434Z,90.71
2022-11-15T17:48:35.375Z,90.39
2022-11-15T17:51:03.112Z,90.18
2022-11-15T17:53:26.947Z,90.45
2022-11-15T17:55:49.849Z,90.25
2022-11-15T17:58:12.395Z,90.83
2022-11-15T18:00:37.815Z,91.10
2022-11-15T18:03:00.415Z,90.65
2022-11-15T18:05:23.045Z,90.87
2022-11-15T18:07:45.870Z,90.55
2022-11-15T18:10:08.996Z,90.88
2022-11-15T18:12:31.875Z,90.99
2022-11-15T18:14:54.410Z,91.08
2022-11-15T18:17:19.022Z,91.01
2022-11-15T18:19:42.278Z,90.78
2022-11-15T18:22:07.253Z,91.11
2022-11-15T18:24:35.145Z,91.56
2022-11-15T18:26:59.487Z,91.71
2022-11-15T18:29:24.492Z,91.54
2022-11-15T18:31:50.105Z,91.62
2022-11-15T18:34:12.795Z,92.18
2022-11-15T18:36:36.329Z,92.16
2022-11-15T18:39:02.329Z,91.89
2022-11-15T18:41:28.492Z,92.02
2022-11-15T18:43:52.560Z,92.33
2022-11-15T18:46:17.051Z,92.25
2022-11-15T18:48:41.683Z,92.44
2022-11-15T18:51:09.385Z,92.61
2022-11-15T18:53:33.160Z,92.54
2022-11-15T18:56:10.607Z,92.37
2022-11-15T18:58:36.294Z,92.39
2022-11-15T19:01:07.592Z,92.38
2022-11-15T19:03:35.427Z,92.86
2022-11-15T19:06:09.634Z,92.98
2022-11-15T19:08:35.604Z,93.04
2022-11-15T19:11:05.518Z,93.14
2022-11-15T19:13:28.099Z,93.19
2022-11-15T19:15:57.639Z,93.04
2022-11-15T19:18:20.590Z,92.54
2022-11-15T19:20:43.640Z,92.49
2022-11-15T19:23:06.498Z,92.45
2022-11-15T19:25:32.725Z,92.32
2022-11-15T19:27:56.633Z,92.77
2022-11-15T19:30:19.624Z,93.03
2022-11-15T19:32:42.471Z,92.83
2022-11-15T19:35:05.708Z,92.88
2022-11-15T19:37:29.580Z,92.98
2022-11-15T19:39:56.038Z,92.72
2022-11-15T19:42:18.605Z,92.53
2022-11-15T19:44:41.387Z,92.39
2022-11-15T19:47:04.399Z,92.49
2022-11-15T19:49:27.566Z,92.95
2022-11-15T19:51:50.742Z,92.81
2022-11-15T19:54:16.937Z,92.82
2022-11-15T19:56:40.157Z,92.48
2022-11-15T19:59:04.679Z,92.27
2022-11-15T20:01:33.404Z,92.52
2022-11-15T20:03:59.545Z,92.48
2022-11-15T20:06:28.391Z,92.91
2022-11-15T20:08:51.260Z,92.89
2022-11-15T20:11:15.821Z,93.20
2022-11-15T20:13:38.929Z,93.20
2022-11-15T20:16:01.878Z,93.36
2022-11-15T20:18:26.464Z,93.33
2022-11-15T20:20:49.942Z,93.53
2022-11-15T20:23:13.663Z,93.79
2022-11-15T20:25:39.759Z,93.83
2022-11-15T20:28:02.278Z,93.57
2022-11-15T20:30:25.800Z,93.40
2022-11-15T20:32:48.778Z,93.52
2022-11-15T20:35:11.503Z,93.65
2022-11-15T20:37:35.152Z,93.36
2022-11-15T20:39:59.738Z,93.22
2022-11-15T20:42:22.364Z,92.90
2022-11-15T20:44:44.969Z,92.68
2022-11-15T20:47:08.998Z,93.04
2022-11-15T20:49:31.808Z,93.15
2022-11-15T20:51:54.756Z,93.18
2022-11-15T20:54:17.541Z,93.15
2022-11-15T20:56:40.067Z,93.27
2022-11-15T20:59:02.939Z,93.31
2022-11-15T21:01:26.042Z,93.16
2022-11-15T21:03:49.440Z,93.20
2022-11-15T21:06:12.192Z,93.01
2022-11-15T21:08:53.558Z,93.11
2022-11-15T21:11:35.149Z,92.98
2022-11-15T21:13:57.983Z,93.24
2022-11-15T21:16:20.562Z,93.02
2022-11-15T21:18:43.279Z,92.81
2022-11-15T21:21:06.200Z,92.73
2022-11-15T21:23:28.847Z,92.46
2022-11-15T21:25:52.313Z,92.34
2022-11-15T21:28:14.934Z,92.78
2022-11-15T21:30:37.720Z,92.89
2022-11-15T21:33:01.455Z,92.95
2022-11-15T21:35:24.066Z,93.19
2022-11-15T21:37:48.586Z,92.89
2022-11-15T21:40:15.613Z,93.22
2022-11-15T21:42:38.174Z,93.12
2022-11-15T21:45:00.669Z,93.14
2022-11-15T21:47:23.285Z,92.99
2022-11-15T21:49:46.694Z,93.12
2022-11-15T21:52:09.490Z,93.54
2022-11-15T21:54:32.173Z,93.44
2022-11-15T21:57:00.312Z,93.21
2022-11-15T21:59:22.870Z,92.96
2022-11-15T22:02:03.846Z,92.96
2022-11-15T22:04:26.433Z,92.69
2022-11-15T22:06:49.046Z,92.90
2022-11-15T22:09:11.695Z,93.21
2022-11-15T22:11:34.739Z,93.28
2022-11-15T22:13:57.468Z,92.99
2022-11-15T22:16:22.008Z,92.82
2022-11-15T22:18:47.449Z,92.44
2022-11-15T22:21:13.902Z,92.72
2022-11-15T22:23:37.354Z,92.59
2022-11-15T22:26:00.280Z,92.53
2022-11-15T22:28:23.818Z,92.57
2022-11-15T22:30:48.137Z,92.67
2022-11-15T22:33:11.222Z,92.33
2022-11-15T22:35:36.884Z,92.61
2022-11-15T22:37:59.410Z,92.77
2022-11-15T22:40:22.949Z,92.66
2022-11-15T22:42:45.476Z,93.21
2022-11-15T22:45:08.273Z,93.35
2022-11-15T22:47:30.848Z,93.41
2022-11-15T22:49:55.176Z,93.23
2022-11-15T22:52:18.524Z,93.39
2022-11-15T22:54:41.171Z,93.68
2022-11-15T22:57:04.225Z,93.49
2022-11-15T22:59:27.081Z,93.13
2022-11-15T23:01:50.990Z,93.03
2022-11-15T23:04:13.798Z,92.74
2022-11-15T23:06:36.448Z,92.18
2022-11-15T23:08:59.093Z,92.40
2022-11-15T23:11:40.448Z,92.73
2022-11-15T23:14:23.062Z,93.20
2022-11-15T23:17:05.681Z,92.94
2022-11-15T23:19:48.121Z,92.99
2022-11-15T23:22:49.008Z,93.19
2022-11-15T23:25:31.414Z,93.62
2022-11-15T23:27:54.067Z,93.82
2022-11-15T23:30:35.318Z,94.05
2022-11-15T23:33:16.312Z,93.95
2022-11-15T23:35:39.208Z,93.58
2022-11-15T23:38:01.907Z,92.99
2022-11-15T23:40:24.627Z,92.93
2022-11-15T23:42:47.127Z,93.14
2022-11-15T23:45:09.912Z,92.81
2022-11-15T23:47:32.509Z,92.60
2022-11-15T23:49:55.251Z,93.31
2022-11-15T23:52:17.838Z,93.50
2022-11-15T23:54:40.488Z,93.93
2022-11-15T23:57:03.255Z,94.18
2022-11-15T23:59:26.216Z,94.41
